Time;durP1;ratioP1;P1;durP2;ratioP2;P2;SDS_P1;SDS_P2;PMS_P1;PMS_P2;Temp;Humidity;BMP_temperature;BMP_pressure;BME280_temperature;BME280_humidity;BME280_pressure;Samples;Min_cycle;Max_cycle;Signal;HPM_P1;HPM_P2
2020/12/26 00:00:46;;;;;;;13.93;9.77;;;;;;;;;;4978135;28;20220;-72
2020/12/26 00:03:11;;;;;;;13.10;10.40;;;;;;;;;;4983902;28;20718;-72
2020/12/26 00:05:39;;;;;;;13.17;10.73;;;;;;;;;;4981798;28;20208;-72
2020/12/26 00:08:04;;;;;;;15.00;11.35;;;;;;;;;;4977666;28;20463;-71
2020/12/26 00:10:30;;;;;;;17.80;10.53;;;;;;;;;;4966369;28;20189;-72
2020/12/26 00:12:56;;;;;;;13.27;10.15;;;;;;;;;;4973851;28;21086;-72
2020/12/26 00:15:24;;;;;;;16.90;8.48;;;;;;;;;;4968229;28;20273;-72
2020/12/26 00:17:50;;;;;;;30.45;10.15;;;;;;;;;;4968500;28;20686;-72
2020/12/26 00:20:18;;;;;;;11.90;10.73;;;;;;;;;;4966576;28;20185;-71
2020/12/26 00:22:44;;;;;;;21.98;9.77;;;;;;;;;;4968164;28;20211;-72
2020/12/26 00:25:10;;;;;;;19.27;9.87;;;;;;;;;;4965229;28;20933;-72
2020/12/26 00:27:36;;;;;;;14.98;9.43;;;;;;;;;;4970948;28;20436;-72
2020/12/26 00:30:03;;;;;;;11.23;10.02;;;;;;;;;;4963117;28;20534;-71
2020/12/26 00:32:29;;;;;;;13.70;9.40;;;;;;;;;;4964299;28;20223;-72
2020/12/26 00:34:55;;;;;;;14.93;8.98;;;;;;;;;;4966738;28;20183;-72
2020/12/26 00:37:21;;;;;;;13.57;11.07;;;;;;;;;;4981030;28;20188;-72
2020/12/26 00:39:47;;;;;;;10.63;9.45;;;;;;;;;;4968923;28;20556;-72
2020/12/26 00:42:13;;;;;;;11.20;8.70;;;;;;;;;;4969639;28;20962;-72
2020/12/26 00:44:39;;;;;;;13.15;9.73;;;;;;;;;;4964531;28;20428;-72
2020/12/26 00:47:05;;;;;;;14.88;10.38;;;;;;;;;;4961514;28;20176;-72
2020/12/26 00:49:31;;;;;;;14.63;12.57;;;;;;;;;;4968441;28;20188;-72
2020/12/26 00:51:57;;;;;;;13.90;10.80;;;;;;;;;;4954473;28;20216;-72
2020/12/26 00:54:23;;;;;;;16.48;12.55;;;;;;;;;;4968083;28;20199;-71
2020/12/26 00:56:49;;;;;;;17.80;13.57;;;;;;;;;;4971248;28;20180;-72
2020/12/26 00:59:15;;;;;;;20.60;14.07;;;;;;;;;;4960161;28;20560;-73
2020/12/26 01:01:41;;;;;;;17.80;15.07;;;;;;;;;;4961225;28;20881;-72
2020/12/26 01:04:07;;;;;;;20.67;13.70;;;;;;;;;;4952765;28;20288;-72
2020/12/26 01:06:33;;;;;;;16.77;13.02;;;;;;;;;;4957317;28;20467;-72
2020/12/26 01:08:59;;;;;;;18.30;12.65;;;;;;;;;;4957728;28;20207;-73
2020/12/26 01:11:25;;;;;;;19.02;12.70;;;;;;;;;;4955130;28;20184;-72
2020/12/26 01:13:51;;;;;;;15.02;11.65;;;;;;;;;;4955100;28;20260;-72
2020/12/26 01:16:17;;;;;;;13.27;11.53;;;;;;;;;;4958314;28;20212;-72
2020/12/26 01:18:43;;;;;;;14.48;12.93;;;;;;;;;;4970165;28;21034;-72
2020/12/26 01:21:13;;;;;;;16.23;12.87;;;;;;;;;;4957334;28;20267;-72
2020/12/26 01:23:40;;;;;;;17.10;11.95;;;;;;;;;;4980888;22;20502;-74
2020/12/26 01:26:06;;;;;;;18.25;11.48;;;;;;;;;;4964708;28;20192;-74
2020/12/26 01:28:32;;;;;;;16.70;13.38;;;;;;;;;;4962300;28;20272;-72
2020/12/26 01:30:58;;;;;;;14.83;12.13;;;;;;;;;;4971379;28;20180;-73
2020/12/26 01:33:24;;;;;;;14.70;12.20;;;;;;;;;;4966836;28;20510;-74
2020/12/26 01:35:50;;;;;;;19.33;14.43;;;;;;;;;;4970203;28;20189;-74
2020/12/26 01:38:16;;;;;;;16.97;13.50;;;;;;;;;;4971175;28;20436;-73
2020/12/26 01:40:48;;;;;;;14.70;12.63;;;;;;;;;;4971386;28;21062;-74
2020/12/26 01:43:14;;;;;;;14.35;12.70;;;;;;;;;;4971023;28;20462;-74
2020/12/26 01:45:40;;;;;;;15.87;14.27;;;;;;;;;;4971522;28;20188;-74
2020/12/26 01:48:06;;;;;;;14.37;12.87;;;;;;;;;;4972053;28;20439;-74
2020/12/26 01:50:32;;;;;;;16.33;14.55;;;;;;;;;;4971781;28;20470;-74
2020/12/26 01:52:58;;;;;;;17.30;14.05;;;;;;;;;;4970524;28;20796;-74
2020/12/26 01:55:24;;;;;;;20.05;14.52;;;;;;;;;;4971141;28;20660;-74
2020/12/26 01:57:51;;;;;;;18.45;14.52;;;;;;;;;;4970768;28;20188;-74
2020/12/26 02:00:17;;;;;;;19.80;13.63;;;;;;;;;;4971857;28;20192;-74
2020/12/26 02:02:43;;;;;;;21.23;15.25;;;;;;;;;;4971505;28;20188;-74
2020/12/26 02:05:09;;;;;;;19.58;14.30;;;;;;;;;;4970578;28;20192;-74
2020/12/26 02:07:35;;;;;;;22.20;15.77;;;;;;;;;;4971413;28;20191;-74
2020/12/26 02:10:01;;;;;;;21.92;15.02;;;;;;;;;;4970632;28;20188;-74
2020/12/26 02:12:27;;;;;;;15.88;14.02;;;;;;;;;;4971737;28;20679;-73
2020/12/26 02:14:53;;;;;;;17.80;14.30;;;;;;;;;;4970409;28;20207;-74
2020/12/26 02:17:25;;;;;;;22.30;14.87;;;;;;;;;;4971483;28;20428;-74
2020/12/26 02:19:51;;;;;;;17.30;15.52;;;;;;;;;;4971498;28;20435;-74
2020/12/26 02:22:17;;;;;;;21.67;16.20;;;;;;;;;;4970858;28;20188;-74
2020/12/26 02:24:43;;;;;;;17.10;14.93;;;;;;;;;;4970198;28;20726;-74
2020/12/26 02:27:09;;;;;;;15.20;13.47;;;;;;;;;;4970917;28;20192;-74
2020/12/26 02:29:35;;;;;;;16.20;14.52;;;;;;;;;;4971221;28;20427;-74
2020/12/26 02:32:01;;;;;;;18.47;15.87;;;;;;;;;;4971109;28;20570;-74
2020/12/26 02:34:27;;;;;;;15.37;13.63;;;;;;;;;;4970712;28;20447;-74
2020/12/26 02:36:53;;;;;;;17.93;13.73;;;;;;;;;;4970263;28;20434;-74
2020/12/26 02:39:19;;;;;;;19.95;15.45;;;;;;;;;;4971212;28;20427;-74
2020/12/26 02:41:47;;;;;;;18.13;16.03;;;;;;;;;;4970718;28;20829;-74
2020/12/26 02:44:13;;;;;;;23.63;15.85;;;;;;;;;;4970888;28;20458;-74
2020/12/26 02:46:39;;;;;;;24.63;15.03;;;;;;;;;;4970784;28;20192;-74
2020/12/26 02:49:05;;;;;;;19.07;14.70;;;;;;;;;;4970901;28;20446;-74
2020/12/26 02:51:33;;;;;;;16.60;14.05;;;;;;;;;;4969616;28;20490;-74
2020/12/26 02:53:59;;;;;;;16.67;14.07;;;;;;;;;;4970462;28;20243;-74
2020/12/26 02:56:25;;;;;;;15.68;13.95;;;;;;;;;;4970858;28;20172;-74
2020/12/26 02:58:51;;;;;;;18.42;13.48;;;;;;;;;;4969758;28;20192;-74
2020/12/26 03:01:17;;;;;;;15.57;13.07;;;;;;;;;;4970504;28;20189;-74
2020/12/26 03:03:43;;;;;;;13.27;11.93;;;;;;;;;;4970970;28;20693;-74
2020/12/26 03:06:12;;;;;;;17.30;13.90;;;;;;;;;;4970070;28;20284;-74
2020/12/26 03:08:38;;;;;;;18.27;12.90;;;;;;;;;;4971502;28;20240;-74
2020/12/26 03:11:04;;;;;;;13.80;12.50;;;;;;;;;;4970750;28;20183;-74
2020/12/26 03:13:30;;;;;;;13.23;11.15;;;;;;;;;;4970592;28;20499;-74
2020/12/26 03:15:59;;;;;;;14.18;12.77;;;;;;;;;;4970257;28;20207;-74
2020/12/26 03:18:25;;;;;;;14.65;12.02;;;;;;;;;;4970661;28;20266;-73
2020/12/26 03:20:51;;;;;;;14.85;12.52;;;;;;;;;;4971277;28;20173;-74
2020/12/26 03:23:17;;;;;;;16.55;12.73;;;;;;;;;;4970688;28;20342;-74
2020/12/26 03:25:43;;;;;;;15.20;12.90;;;;;;;;;;4969880;28;20184;-74
2020/12/26 03:28:09;;;;;;;13.67;12.27;;;;;;;;;;4970537;28;20188;-74
2020/12/26 03:30:35;;;;;;;14.88;12.82;;;;;;;;;;4970088;28;20446;-74
2020/12/26 03:33:01;;;;;;;12.95;11.35;;;;;;;;;;4972695;28;20231;-74
2020/12/26 03:35:27;;;;;;;14.63;13.07;;;;;;;;;;4971743;28;20261;-74
2020/12/26 03:37:53;;;;;;;15.33;13.73;;;;;;;;;;4974265;28;20628;-74
2020/12/26 03:40:19;;;;;;;14.93;13.40;;;;;;;;;;4972600;28;20435;-74
2020/12/26 03:42:45;;;;;;;17.70;13.07;;;;;;;;;;4974247;28;20872;-74
2020/12/26 03:45:11;;;;;;;18.73;12.30;;;;;;;;;;4973115;28;20850;-74
2020/12/26 03:47:37;;;;;;;14.73;13.03;;;;;;;;;;4973635;28;20918;-73
2020/12/26 03:50:03;;;;;;;13.70;11.97;;;;;;;;;;4973175;28;20790;-74
2020/12/26 03:52:29;;;;;;;17.92;13.45;;;;;;;;;;4973782;28;20549;-74
2020/12/26 03:54:55;;;;;;;17.30;13.00;;;;;;;;;;4973316;28;20614;-74
2020/12/26 03:57:21;;;;;;;13.53;12.07;;;;;;;;;;4972369;28;20946;-72
2020/12/26 03:59:47;;;;;;;16.67;12.77;;;;;;;;;;4973259;28;20970;-74
2020/12/26 04:02:12;;;;;;;16.03;13.60;;;;;;;;;;4973337;28;20192;-74
2020/12/26 04:04:38;;;;;;;16.55;13.40;;;;;;;;;;4972784;28;20563;-74
2020/12/26 04:07:04;;;;;;;15.60;13.23;;;;;;;;;;4974041;28;20271;-74
2020/12/26 04:09:31;;;;;;;21.15;13.98;;;;;;;;;;4973350;28;20439;-74
2020/12/26 04:11:56;;;;;;;18.60;13.77;;;;;;;;;;4973692;28;20176;-74
2020/12/26 04:14:23;;;;;;;15.50;13.90;;;;;;;;;;4972782;28;20231;-74
2020/12/26 04:16:54;;;;;;;16.35;14.00;;;;;;;;;;4973349;28;20866;-74
2020/12/26 04:19:20;;;;;;;16.38;14.60;;;;;;;;;;4973206;28;20180;-74
2020/12/26 04:21:46;;;;;;;15.77;13.63;;;;;;;;;;4973419;28;20655;-74
2020/12/26 04:24:12;;;;;;;18.33;14.70;;;;;;;;;;4972140;28;20867;-74
2020/12/26 04:26:38;;;;;;;16.27;13.40;;;;;;;;;;4972855;28;20935;-74
2020/12/26 04:29:05;;;;;;;18.20;13.67;;;;;;;;;;4974061;28;20938;-75
2020/12/26 04:31:31;;;;;;;18.77;14.80;;;;;;;;;;4972963;28;20487;-74
2020/12/26 04:33:57;;;;;;;22.23;14.90;;;;;;;;;;4972456;28;20220;-74
2020/12/26 04:36:23;;;;;;;17.50;14.57;;;;;;;;;;4973143;28;20180;-74
2020/12/26 04:38:49;;;;;;;22.05;14.30;;;;;;;;;;4972620;28;20922;-74
2020/12/26 04:41:18;;;;;;;17.37;14.00;;;;;;;;;;4972208;28;20180;-74
2020/12/26 04:43:44;;;;;;;17.55;12.30;;;;;;;;;;4972478;28;20460;-74
2020/12/26 04:46:17;;;;;;;21.63;15.00;;;;;;;;;;4971424;28;20181;-74
2020/12/26 04:48:54;;;;;;;14.88;12.65;;;;;;;;;;4972489;28;21101;-74
2020/12/26 04:51:20;;;;;;;18.52;12.93;;;;;;;;;;4972578;28;20187;-74
2020/12/26 04:53:52;;;;;;;19.90;13.13;;;;;;;;;;4972947;28;20767;-74
2020/12/26 04:56:22;;;;;;;16.40;14.10;;;;;;;;;;4972052;28;20184;-74
2020/12/26 04:58:49;;;;;;;16.38;13.43;;;;;;;;;;4973874;28;20179;-74
2020/12/26 05:01:16;;;;;;;19.33;14.90;;;;;;;;;;4972279;28;20180;-74
2020/12/26 05:03:44;;;;;;;14.82;13.23;;;;;;;;;;4972229;28;20200;-74
2020/12/26 05:06:11;;;;;;;14.88;13.10;;;;;;;;;;4971839;28;20551;-74
2020/12/26 05:08:37;;;;;;;17.60;15.60;;;;;;;;;;4972879;28;20180;-74
2020/12/26 05:11:03;;;;;;;17.73;15.50;;;;;;;;;;4972032;28;20655;-74
2020/12/26 05:13:28;;;;;;;17.50;15.17;;;;;;;;;;4971644;28;21020;-74
2020/12/26 05:15:55;;;;;;;17.73;13.73;;;;;;;;;;4971221;28;20432;-74
2020/12/26 05:18:21;;;;;;;21.20;14.60;;;;;;;;;;4971502;28;20419;-74
2020/12/26 05:20:47;;;;;;;20.05;15.77;;;;;;;;;;4972529;28;20267;-74
2020/12/26 05:23:17;;;;;;;22.60;17.08;;;;;;;;;;4972164;28;20570;-73
2020/12/26 05:25:50;;;;;;;19.20;15.25;;;;;;;;;;4973886;28;20271;-74
2020/12/26 05:28:17;;;;;;;22.20;16.98;;;;;;;;;;4978752;28;20242;-74
2020/12/26 05:30:44;;;;;;;21.20;18.50;;;;;;;;;;4971762;28;20722;-74
2020/12/26 05:33:10;;;;;;;27.83;18.08;;;;;;;;;;4972384;28;20220;-74
2020/12/26 05:35:46;;;;;;;19.17;17.15;;;;;;;;;;4971293;28;20180;-74
2020/12/26 05:38:25;;;;;;;23.48;18.98;;;;;;;;;;4972509;28;20270;-73
2020/12/26 05:40:52;;;;;;;23.63;18.63;;;;;;;;;;4973839;28;20184;-74
2020/12/26 05:43:19;;;;;;;24.25;18.52;;;;;;;;;;4971652;28;20354;-73
2020/12/26 05:45:46;;;;;;;23.35;18.08;;;;;;;;;;4966510;28;20602;-73
2020/12/26 05:48:13;;;;;;;22.23;17.73;;;;;;;;;;4971058;28;20745;-74
2020/12/26 05:50:40;;;;;;;24.35;17.98;;;;;;;;;;4968635;28;20195;-74
2020/12/26 05:53:07;;;;;;;24.10;18.15;;;;;;;;;;4971391;28;20212;-74
2020/12/26 05:55:39;;;;;;;25.20;19.65;;;;;;;;;;4971364;28;20203;-74
2020/12/26 05:58:05;;;;;;;28.45;18.33;;;;;;;;;;4971714;28;20191;-74
2020/12/26 06:00:32;;;;;;;30.30;17.83;;;;;;;;;;4970683;28;20260;-74
2020/12/26 06:02:58;;;;;;;22.20;17.83;;;;;;;;;;4972347;28;20212;-75
2020/12/26 06:05:24;;;;;;;26.55;21.42;;;;;;;;;;4970844;28;20593;-75
2020/12/26 06:07:51;;;;;;;24.63;20.60;;;;;;;;;;4970853;28;20188;-75
2020/12/26 06:10:17;;;;;;;23.75;17.15;;;;;;;;;;4971605;28;20180;-75
2020/12/26 06:12:43;;;;;;;22.98;18.40;;;;;;;;;;4970874;28;20204;-75
2020/12/26 06:15:10;;;;;;;20.45;18.25;;;;;;;;;;4970769;28;20191;-75
2020/12/26 06:17:36;;;;;;;22.60;19.02;;;;;;;;;;4971231;28;20191;-75
2020/12/26 06:20:06;;;;;;;22.53;19.20;;;;;;;;;;4969917;28;20177;-75
2020/12/26 06:22:42;;;;;;;25.27;18.63;;;;;;;;;;4969998;28;20531;-75
2020/12/26 06:25:11;;;;;;;23.88;19.25;;;;;;;;;;4970440;28;20266;-75
2020/12/26 06:27:37;;;;;;;29.60;19.35;;;;;;;;;;4971533;28;20553;-75
2020/12/26 06:30:03;;;;;;;25.40;18.25;;;;;;;;;;4970274;28;20188;-75
2020/12/26 06:32:29;;;;;;;26.73;18.27;;;;;;;;;;4963941;28;20216;-74
2020/12/26 06:34:55;;;;;;;20.50;17.35;;;;;;;;;;4969699;28;20677;-74
2020/12/26 06:37:21;;;;;;;27.17;17.73;;;;;;;;;;4970896;28;20227;-75
2020/12/26 06:39:47;;;;;;;17.43;15.20;;;;;;;;;;4971260;28;20204;-75
2020/12/26 06:42:14;;;;;;;21.20;15.95;;;;;;;;;;4970267;28;20427;-75
2020/12/26 06:44:41;;;;;;;20.10;15.93;;;;;;;;;;4970308;28;20192;-75
2020/12/26 06:47:07;;;;;;;19.77;15.20;;;;;;;;;;4971191;28;20219;-75
2020/12/26 06:49:33;;;;;;;19.70;17.03;;;;;;;;;;4970500;28;20172;-74
2020/12/26 06:51:59;;;;;;;21.42;16.73;;;;;;;;;;4971097;28;20486;-74
2020/12/26 06:54:38;;;;;;;19.10;14.27;;;;;;;;;;4969836;28;20687;-75
2020/12/26 06:57:04;;;;;;;22.63;14.52;;;;;;;;;;4970985;28;20180;-75
2020/12/26 06:59:34;;;;;;;19.13;14.68;;;;;;;;;;4974394;28;20279;-74
2020/12/26 07:02:04;;;;;;;17.67;13.32;;;;;;;;;;4971082;28;20259;-74
2020/12/26 07:04:36;;;;;;;15.48;13.65;;;;;;;;;;4968755;28;20660;-75
2020/12/26 07:07:02;;;;;;;22.95;15.63;;;;;;;;;;4973690;28;20223;-74
2020/12/26 07:09:37;;;;;;;18.60;14.00;;;;;;;;;;4971843;28;20188;-74
2020/12/26 07:12:06;;;;;;;20.48;14.70;;;;;;;;;;4973773;28;20191;-75
2020/12/26 07:14:39;;;;;;;19.25;16.40;;;;;;;;;;4973987;28;20266;-75
2020/12/26 07:17:14;;;;;;;19.27;14.32;;;;;;;;;;4971861;28;20184;-75
2020/12/26 07:19:41;;;;;;;21.00;16.08;;;;;;;;;;4973924;28;20180;-76
2020/12/26 07:22:13;;;;;;;19.52;13.02;;;;;;;;;;4972336;28;20285;-75
2020/12/26 07:24:43;;;;;;;22.33;14.13;;;;;;;;;;4963581;28;20216;-75
2020/12/26 07:27:28;;;;;;;17.10;13.65;;;;;;;;;;4970449;28;20263;-75
2020/12/26 07:30:03;;;;;;;21.92;13.95;;;;;;;;;;4963504;28;20349;-75
2020/12/26 07:32:38;;;;;;;16.42;12.20;;;;;;;;;;4967045;28;20818;-75
2020/12/26 07:35:05;;;;;;;18.50;13.82;;;;;;;;;;4974127;28;20207;-75
2020/12/26 07:37:31;;;;;;;19.88;13.80;;;;;;;;;;4968901;28;20220;-75
2020/12/26 07:39:57;;;;;;;20.25;13.15;;;;;;;;;;4959643;28;20176;-74
2020/12/26 07:42:23;;;;;;;14.63;11.20;;;;;;;;;;4973852;28;20641;-74
2020/12/26 07:44:49;;;;;;;18.95;12.00;;;;;;;;;;4974318;28;20467;-74
2020/12/26 07:47:16;;;;;;;14.90;11.43;;;;;;;;;;4973356;28;20192;-74
2020/12/26 07:49:42;;;;;;;15.23;12.02;;;;;;;;;;4972449;28;20180;-75
2020/12/26 07:52:08;;;;;;;14.25;10.50;;;;;;;;;;4974325;28;21063;-75
2020/12/26 07:54:35;;;;;;;14.55;12.50;;;;;;;;;;4973290;28;20204;-75
2020/12/26 07:57:01;;;;;;;15.45;11.75;;;;;;;;;;4970517;28;20192;-74
2020/12/26 07:59:27;;;;;;;15.02;12.23;;;;;;;;;;4974180;28;20608;-75
2020/12/26 08:01:53;;;;;;;17.60;11.68;;;;;;;;;;4974123;28;20188;-74
2020/12/26 08:04:19;;;;;;;15.05;11.63;;;;;;;;;;4973468;28;20258;-75
2020/12/26 08:06:46;;;;;;;22.27;11.98;;;;;;;;;;4973837;28;20196;-75
2020/12/26 08:09:13;;;;;;;13.07;11.57;;;;;;;;;;4973051;28;20188;-75
2020/12/26 08:11:39;;;;;;;19.60;10.13;;;;;;;;;;4974302;28;20192;-78
2020/12/26 08:14:05;;;;;;;14.70;11.30;;;;;;;;;;4972987;28;20586;-74
2020/12/26 08:16:32;;;;;;;15.30;11.30;;;;;;;;;;4972801;28;20184;-73
2020/12/26 08:18:58;;;;;;;16.38;11.30;;;;;;;;;;4971234;28;20901;-74
2020/12/26 08:21:24;;;;;;;15.38;10.65;;;;;;;;;;4972651;28;20535;-73
2020/12/26 08:24:00;;;;;;;15.57;10.95;;;;;;;;;;4971768;28;20239;-73
2020/12/26 08:26:27;;;;;;;12.25;9.38;;;;;;;;;;4972054;28;20188;-73
2020/12/26 08:28:55;;;;;;;11.82;9.35;;;;;;;;;;4972642;28;20647;-73
2020/12/26 08:31:22;;;;;;;15.60;10.50;;;;;;;;;;4972577;28;20200;-73
2020/12/26 08:33:50;;;;;;;13.15;10.15;;;;;;;;;;4974219;28;20707;-73
2020/12/26 08:36:24;;;;;;;12.35;9.90;;;;;;;;;;4964234;28;20652;-73
2020/12/26 08:38:50;;;;;;;12.75;11.10;;;;;;;;;;4969892;28;20188;-73
2020/12/26 08:41:17;;;;;;;12.53;9.57;;;;;;;;;;4972807;28;20198;-72
2020/12/26 08:43:43;;;;;;;19.55;8.45;;;;;;;;;;4972413;28;20447;-73
2020/12/26 08:46:17;;;;;;;9.23;8.15;;;;;;;;;;4972358;28;20189;-71
2020/12/26 08:48:43;;;;;;;9.57;7.90;;;;;;;;;;4971711;28;20204;-73
2020/12/26 08:51:19;;;;;;;12.65;9.10;;;;;;;;;;4971546;28;20267;-73
2020/12/26 08:53:46;;;;;;;12.73;10.20;;;;;;;;;;4969036;28;20220;-73
2020/12/26 08:56:12;;;;;;;14.35;10.45;;;;;;;;;;4971098;28;20184;-73
2020/12/26 08:58:38;;;;;;;7.80;6.90;;;;;;;;;;4972011;28;20181;-73
2020/12/26 09:01:04;;;;;;;8.65;7.25;;;;;;;;;;4971297;28;20719;-73
2020/12/26 09:03:31;;;;;;;11.05;8.48;;;;;;;;;;4971722;28;20319;-73
2020/12/26 09:05:58;;;;;;;11.85;8.93;;;;;;;;;;4971187;28;20619;-73
2020/12/26 09:08:28;;;;;;;10.38;8.10;;;;;;;;;;4972037;28;20269;-73
2020/12/26 09:10:58;;;;;;;10.73;7.13;;;;;;;;;;4972694;28;20243;-73
2020/12/26 09:13:50;;;;;;;10.88;7.63;;;;;;;;;;4972451;28;20767;-73
2020/12/26 09:16:17;;;;;;;9.38;7.30;;;;;;;;;;4952216;28;20201;-73
2020/12/26 09:18:44;;;;;;;10.00;7.65;;;;;;;;;;4985633;28;20177;-73
2020/12/26 09:21:21;;;;;;;12.85;7.25;;;;;;;;;;4971612;28;20240;-73
2020/12/26 09:23:47;;;;;;;11.25;6.53;;;;;;;;;;4972320;28;20219;-74
2020/12/26 09:26:13;;;;;;;7.60;6.10;;;;;;;;;;4981889;28;20187;-73
2020/12/26 09:28:44;;;;;;;13.77;8.35;;;;;;;;;;4977657;28;20270;-73
2020/12/26 09:31:10;;;;;;;10.90;7.50;;;;;;;;;;4980769;28;20194;-73
2020/12/26 09:33:36;;;;;;;8.68;6.30;;;;;;;;;;4980982;28;20211;-73
2020/12/26 09:36:03;;;;;;;10.70;7.13;;;;;;;;;;4971506;28;20674;-73
2020/12/26 09:38:29;;;;;;;8.38;7.10;;;;;;;;;;4978892;28;20435;-73
2020/12/26 09:40:55;;;;;;;7.50;5.97;;;;;;;;;;4978272;28;20203;-73
2020/12/26 09:43:21;;;;;;;9.90;6.83;;;;;;;;;;4977246;28;21116;-73
2020/12/26 09:45:47;;;;;;;7.25;6.50;;;;;;;;;;4979797;28;20704;-73
2020/12/26 09:48:13;;;;;;;7.70;5.40;;;;;;;;;;4980425;28;20207;-74
2020/12/26 09:50:39;;;;;;;9.50;4.87;;;;;;;;;;4977368;28;20436;-73
2020/12/26 09:53:05;;;;;;;5.43;4.60;;;;;;;;;;4981127;28;20534;-74
2020/12/26 09:55:31;;;;;;;7.43;5.03;;;;;;;;;;4980038;28;20268;-73
2020/12/26 09:57:57;;;;;;;10.18;5.15;;;;;;;;;;4978636;28;20189;-74
2020/12/26 10:00:23;;;;;;;8.50;5.63;;;;;;;;;;4980090;28;20199;-74
2020/12/26 10:02:49;;;;;;;9.25;6.05;;;;;;;;;;4979471;28;20493;-74
2020/12/26 10:05:18;;;;;;;6.60;4.33;;;;;;;;;;4976797;28;20686;-74
2020/12/26 10:07:44;;;;;;;5.00;3.92;;;;;;;;;;4979256;28;20424;-74
2020/12/26 10:10:10;;;;;;;5.32;4.53;;;;;;;;;;4978372;28;20287;-73
2020/12/26 10:12:37;;;;;;;6.40;5.05;;;;;;;;;;4970145;28;20290;-73
2020/12/26 10:15:03;;;;;;;6.18;4.13;;;;;;;;;;4968890;28;20200;-73
2020/12/26 10:17:29;;;;;;;5.97;5.38;;;;;;;;;;4971238;28;20199;-73
2020/12/26 10:19:55;;;;;;;8.83;4.70;;;;;;;;;;4966994;28;20188;-73
2020/12/26 10:22:21;;;;;;;6.70;4.73;;;;;;;;;;4971528;28;20438;-73
2020/12/26 10:24:47;;;;;;;7.80;4.60;;;;;;;;;;4970417;28;20463;-73
2020/12/26 10:27:13;;;;;;;5.97;4.20;;;;;;;;;;4970729;28;20436;-73
2020/12/26 10:29:39;;;;;;;4.68;3.80;;;;;;;;;;4971127;28;20172;-73
2020/12/26 10:32:05;;;;;;;5.00;4.37;;;;;;;;;;4975792;28;20190;-74
2020/12/26 10:34:31;;;;;;;6.03;3.87;;;;;;;;;;4975796;28;20471;-73
2020/12/26 10:36:57;;;;;;;3.83;3.42;;;;;;;;;;4972153;28;20448;-73
2020/12/26 10:39:23;;;;;;;7.20;3.92;;;;;;;;;;4971176;28;20195;-73
2020/12/26 10:41:49;;;;;;;7.78;4.28;;;;;;;;;;4984496;28;20187;-73
2020/12/26 10:44:15;;;;;;;10.20;3.97;;;;;;;;;;4976487;28;20199;-73
2020/12/26 10:46:42;;;;;;;4.63;4.03;;;;;;;;;;4974902;28;20199;-73
2020/12/26 10:49:08;;;;;;;10.45;4.35;;;;;;;;;;4981292;28;20183;-73
2020/12/26 10:51:34;;;;;;;5.43;4.35;;;;;;;;;;4982832;28;20179;-72
2020/12/26 10:54:01;;;;;;;9.93;4.65;;;;;;;;;;4984934;28;20211;-72
2020/12/26 10:56:27;;;;;;;6.97;3.50;;;;;;;;;;4982613;28;20316;-72
2020/12/26 10:58:53;;;;;;;5.75;3.53;;;;;;;;;;4985351;28;20183;-73
2020/12/26 11:01:28;;;;;;;4.43;3.08;;;;;;;;;;4982712;28;20180;-74
2020/12/26 11:03:54;;;;;;;4.13;2.83;;;;;;;;;;4986813;28;20206;-73
2020/12/26 11:06:20;;;;;;;6.70;3.78;;;;;;;;;;4980893;28;20188;-73
2020/12/26 11:08:46;;;;;;;5.30;3.58;;;;;;;;;;4984949;28;20211;-73
2020/12/26 11:11:12;;;;;;;3.90;3.20;;;;;;;;;;4982717;28;20218;-73
2020/12/26 11:13:38;;;;;;;4.38;3.92;;;;;;;;;;4984282;28;20530;-74
2020/12/26 11:16:04;;;;;;;6.50;3.08;;;;;;;;;;4984225;28;20202;-73
2020/12/26 11:18:30;;;;;;;5.93;3.27;;;;;;;;;;4983492;28;20172;-73
2020/12/26 11:20:56;;;;;;;4.85;3.53;;;;;;;;;;4982936;28;20433;-74
2020/12/26 11:23:22;;;;;;;9.93;4.43;;;;;;;;;;4983662;28;20687;-73
2020/12/26 11:25:48;;;;;;;7.68;3.20;;;;;;;;;;4978440;28;20242;-73
2020/12/26 11:28:14;;;;;;;6.30;2.90;;;;;;;;;;4979488;28;20184;-73
2020/12/26 11:30:40;;;;;;;9.20;4.00;;;;;;;;;;4970789;28;20200;-73
2020/12/26 11:33:06;;;;;;;5.32;3.03;;;;;;;;;;4976960;28;20212;-73
2020/12/26 11:35:32;;;;;;;3.80;3.00;;;;;;;;;;4969326;28;20250;-74
2020/12/26 11:37:58;;;;;;;12.18;3.58;;;;;;;;;;4984158;28;20175;-73
2020/12/26 11:40:24;;;;;;;3.40;2.20;;;;;;;;;;4972464;28;20234;-73
2020/12/26 11:42:50;;;;;;;5.33;3.13;;;;;;;;;;4980406;28;20426;-74
2020/12/26 11:45:16;;;;;;;3.43;2.30;;;;;;;;;;4974594;28;20450;-73
2020/12/26 11:47:42;;;;;;;3.88;2.80;;;;;;;;;;4980620;28;20527;-74
2020/12/26 11:50:08;;;;;;;3.30;2.75;;;;;;;;;;4982240;28;20218;-74
2020/12/26 11:52:34;;;;;;;2.30;2.10;;;;;;;;;;4981227;28;20211;-74
2020/12/26 11:55:00;;;;;;;6.13;2.97;;;;;;;;;;4979958;28;20539;-74
2020/12/26 11:57:26;;;;;;;5.22;2.63;;;;;;;;;;4980277;28;20423;-74
2020/12/26 11:59:52;;;;;;;3.77;2.37;;;;;;;;;;4982189;28;20184;-72
2020/12/26 12:02:18;;;;;;;3.58;2.20;;;;;;;;;;4976695;28;20423;-74
2020/12/26 12:04:44;;;;;;;3.50;2.53;;;;;;;;;;4977336;28;20986;-74
2020/12/26 12:07:11;;;;;;;5.10;2.20;;;;;;;;;;4973704;28;20423;-74
2020/12/26 12:09:37;;;;;;;4.47;1.90;;;;;;;;;;4973103;28;20435;-74
2020/12/26 12:12:03;;;;;;;2.37;2.13;;;;;;;;;;4976093;28;20192;-74
2020/12/26 12:14:29;;;;;;;9.43;2.33;;;;;;;;;;4971846;28;20562;-74
2020/12/26 12:16:55;;;;;;;3.30;2.10;;;;;;;;;;4973488;28;20436;-74
2020/12/26 12:19:21;;;;;;;3.73;2.87;;;;;;;;;;4978587;28;20434;-73
2020/12/26 12:21:47;;;;;;;5.53;2.00;;;;;;;;;;4981452;28;20431;-73
2020/12/26 12:24:13;;;;;;;5.03;2.38;;;;;;;;;;4980089;28;20473;-73
2020/12/26 12:26:39;;;;;;;1.60;1.30;;;;;;;;;;4978596;28;20192;-74
2020/12/26 12:29:05;;;;;;;2.90;2.40;;;;;;;;;;4972445;28;20188;-74
2020/12/26 12:31:36;;;;;;;2.15;1.90;;;;;;;;;;4981230;28;20261;-74
2020/12/26 12:34:02;;;;;;;3.70;2.17;;;;;;;;;;4972777;28;20700;-75
2020/12/26 12:36:28;;;;;;;3.87;1.70;;;;;;;;;;4975064;28;20219;-74
2020/12/26 12:38:53;;;;;;;4.47;1.70;;;;;;;;;;4979427;28;20416;-74
2020/12/26 12:41:19;;;;;;;1.93;1.57;;;;;;;;;;4975513;28;20531;-74
2020/12/26 12:43:45;;;;;;;1.53;1.43;;;;;;;;;;4982673;28;20451;-73
2020/12/26 12:46:11;;;;;;;1.67;1.58;;;;;;;;;;4977532;28;20453;-74
2020/12/26 12:48:38;;;;;;;2.55;1.65;;;;;;;;;;4983270;28;20188;-74
2020/12/26 12:51:04;;;;;;;2.92;1.40;;;;;;;;;;4983048;28;20220;-74
2020/12/26 12:53:30;;;;;;;2.70;1.38;;;;;;;;;;4983374;28;20232;-75
2020/12/26 12:55:56;;;;;;;5.22;1.50;;;;;;;;;;4979755;28;20734;-74
2020/12/26 12:58:22;;;;;;;3.95;1.60;;;;;;;;;;4981524;28;20202;-75
2020/12/26 13:00:48;;;;;;;1.60;1.50;;;;;;;;;;4977837;28;20264;-74
2020/12/26 13:03:14;;;;;;;2.38;1.40;;;;;;;;;;4979762;28;20207;-74
2020/12/26 13:05:40;;;;;;;2.10;1.35;;;;;;;;;;4979362;28;20555;-73
2020/12/26 13:08:06;;;;;;;4.17;1.50;;;;;;;;;;4980078;28;20192;-74
2020/12/26 13:10:32;;;;;;;3.17;1.70;;;;;;;;;;4975110;28;20502;-73
2020/12/26 13:12:58;;;;;;;3.50;1.33;;;;;;;;;;4972520;28;20460;-73
2020/12/26 13:15:24;;;;;;;1.40;1.00;;;;;;;;;;4979258;28;20422;-74
2020/12/26 13:17:50;;;;;;;2.42;1.35;;;;;;;;;;4975278;28;20902;-73
2020/12/26 13:20:16;;;;;;;1.88;1.40;;;;;;;;;;4971794;28;20703;-73
2020/12/26 13:22:42;;;;;;;2.90;1.30;;;;;;;;;;4975050;28;20192;-73
2020/12/26 13:25:08;;;;;;;2.40;1.30;;;;;;;;;;4974768;28;20969;-73
2020/12/26 13:27:34;;;;;;;2.40;1.80;;;;;;;;;;4976753;28;20426;-73
2020/12/26 13:30:00;;;;;;;1.50;1.20;;;;;;;;;;4973093;28;20243;-74
2020/12/26 13:32:26;;;;;;;1.17;1.07;;;;;;;;;;4978940;28;20192;-73
2020/12/26 13:34:53;;;;;;;3.35;1.55;;;;;;;;;;4977829;28;20884;-73
2020/12/26 13:37:19;;;;;;;6.55;1.33;;;;;;;;;;4978943;28;20214;-73
2020/12/26 13:39:45;;;;;;;1.40;1.07;;;;;;;;;;4976868;28;20230;-73
2020/12/26 13:42:11;;;;;;;1.10;0.90;;;;;;;;;;4972028;28;20433;-73
2020/12/26 13:44:37;;;;;;;1.77;1.10;;;;;;;;;;4969247;28;20459;-73
2020/12/26 13:47:03;;;;;;;5.90;1.57;;;;;;;;;;4970891;28;20815;-73
2020/12/26 13:49:29;;;;;;;2.70;1.03;;;;;;;;;;4972060;28;20450;-74
2020/12/26 13:51:55;;;;;;;9.13;1.63;;;;;;;;;;4974099;28;20431;-73
2020/12/26 13:54:23;;;;;;;2.05;1.20;;;;;;;;;;4975470;28;20529;-73
2020/12/26 13:56:49;;;;;;;4.82;1.00;;;;;;;;;;4973723;28;20182;-74
2020/12/26 13:59:15;;;;;;;2.70;1.20;;;;;;;;;;4973873;28;20695;-74
2020/12/26 14:01:44;;;;;;;2.10;1.93;;;;;;;;;;4976718;28;20836;-73
2020/12/26 14:04:12;;;;;;;2.03;1.70;;;;;;;;;;4971215;28;20457;-73
2020/12/26 14:06:38;;;;;;;1.90;1.20;;;;;;;;;;4975637;28;20190;-73
2020/12/26 14:09:06;;;;;;;3.55;1.30;;;;;;;;;;4975577;28;20270;-74
2020/12/26 14:11:32;;;;;;;1.00;0.88;;;;;;;;;;4975640;28;20181;-73
2020/12/26 14:13:58;;;;;;;1.60;1.20;;;;;;;;;;4971151;28;20700;-74
2020/12/26 14:16:25;;;;;;;3.47;1.60;;;;;;;;;;4973502;28;20194;-73
2020/12/26 14:18:51;;;;;;;2.28;1.85;;;;;;;;;;4971372;28;20428;-73
2020/12/26 14:21:18;;;;;;;3.88;1.40;;;;;;;;;;4974620;28;20188;-73
2020/12/26 14:23:44;;;;;;;2.85;1.38;;;;;;;;;;4970525;28;20638;-73